sensor_id;sensor_type;location;lat;lon;timestamp;pressure;altitude;pressure_sealevel;temperature
54746;BMP180;40640;48.130;11.356;2022-10-10T00:03:25;95780.00;;;11.60
54746;BMP180;40640;48.130;11.356;2022-10-10T00:07:29;95775.00;;;11.50
54746;BMP180;40640;48.130;11.356;2022-10-10T00:11:32;95776.00;;;11.50
54746;BMP180;40640;48.130;11.356;2022-10-10T00:15:34;95770.00;;;11.50
54746;BMP180;40640;48.130;11.356;2022-10-10T00:19:37;95772.00;;;11.60
54746;BMP180;40640;48.130;11.356;2022-10-10T00:23:41;95774.00;;;11.50
54746;BMP180;40640;48.130;11.356;2022-10-10T00:27:44;95763.00;;;11.50
54746;BMP180;40640;48.130;11.356;2022-10-10T00:31:47;95762.00;;;11.50
54746;BMP180;40640;48.130;11.356;2022-10-10T00:35:49;95763.00;;;11.50
54746;BMP180;40640;48.130;11.356;2022-10-10T00:39:53;95775.00;;;11.60
54746;BMP180;40640;48.130;11.356;2022-10-10T00:44:04;95764.00;;;11.50
54746;BMP180;40640;48.130;11.356;2022-10-10T00:48:11;95751.00;;;11.60
54746;BMP180;40640;48.130;11.356;2022-10-10T00:52:13;95756.00;;;11.60
54746;BMP180;40640;48.130;11.356;2022-10-10T00:56:20;95759.00;;;11.60
54746;BMP180;40640;48.130;11.356;2022-10-10T01:00:25;95766.00;;;11.60
54746;BMP180;40640;48.130;11.356;2022-10-10T01:04:30;95765.00;;;11.50
54746;BMP180;40640;48.130;11.356;2022-10-10T01:08:33;95761.00;;;11.50
54746;BMP180;40640;48.130;11.356;2022-10-10T01:12:47;95745.00;;;11.50
54746;BMP180;40640;48.130;11.356;2022-10-10T01:17:01;95750.00;;;11.50
54746;BMP180;40640;48.130;11.356;2022-10-10T01:21:14;95753.00;;;11.60
54746;BMP180;40640;48.130;11.356;2022-10-10T01:25:26;95745.00;;;11.60
54746;BMP180;40640;48.130;11.356;2022-10-10T01:29:32;95744.00;;;11.60
54746;BMP180;40640;48.130;11.356;2022-10-10T01:33:45;95750.00;;;11.70
54746;BMP180;40640;48.130;11.356;2022-10-10T01:37:53;95738.00;;;11.70
54746;BMP180;40640;48.130;11.356;2022-10-10T01:42:03;95743.00;;;11.70
54746;BMP180;40640;48.130;11.356;2022-10-10T01:46:10;95754.00;;;11.70
54746;BMP180;40640;48.130;11.356;2022-10-10T01:50:16;95757.00;;;11.70
54746;BMP180;40640;48.130;11.356;2022-10-10T01:54:31;95753.00;;;11.70
54746;BMP180;40640;48.130;11.356;2022-10-10T01:58:58;95752.00;;;11.70
54746;BMP180;40640;48.130;11.356;2022-10-10T02:03:08;95749.00;;;11.70
54746;BMP180;40640;48.130;11.356;2022-10-10T02:07:18;95747.00;;;11.70
54746;BMP180;40640;48.130;11.356;2022-10-10T02:11:24;95749.00;;;11.70
54746;BMP180;40640;48.130;11.356;2022-10-10T02:15:31;95746.00;;;11.70
54746;BMP180;40640;48.130;11.356;2022-10-10T02:19:37;95748.00;;;11.70
54746;BMP180;40640;48.130;11.356;2022-10-10T02:23:46;95740.00;;;11.70
54746;BMP180;40640;48.130;11.356;2022-10-10T02:27:58;95741.00;;;11.70
54746;BMP180;40640;48.130;11.356;2022-10-10T02:32:07;95740.00;;;11.70
54746;BMP180;40640;48.130;11.356;2022-10-10T02:36:13;95741.00;;;11.70
54746;BMP180;40640;48.130;11.356;2022-10-10T02:40:19;95746.00;;;11.70
54746;BMP180;40640;48.130;11.356;2022-10-10T02:44:22;95743.00;;;11.70
54746;BMP180;40640;48.130;11.356;2022-10-10T02:48:26;95739.00;;;11.60
54746;BMP180;40640;48.130;11.356;2022-10-10T02:52:31;95735.00;;;11.60
54746;BMP180;40640;48.130;11.356;2022-10-10T02:56:33;95737.00;;;11.50
54746;BMP180;40640;48.130;11.356;2022-10-10T03:00:36;95727.00;;;11.50
54746;BMP180;40640;48.130;11.356;2022-10-10T03:04:39;95734.00;;;11.60
54746;BMP180;40640;48.130;11.356;2022-10-10T03:08:43;95751.00;;;11.50
54746;BMP180;40640;48.130;11.356;2022-10-10T03:12:46;95745.00;;;11.50
54746;BMP180;40640;48.130;11.356;2022-10-10T03:16:49;95748.00;;;11.40
54746;BMP180;40640;48.130;11.356;2022-10-10T03:20:54;95748.00;;;11.40
54746;BMP180;40640;48.130;11.356;2022-10-10T03:24:58;95749.00;;;11.40
54746;BMP180;40640;48.130;11.356;2022-10-10T03:29:01;95749.00;;;11.40
54746;BMP180;40640;48.130;11.356;2022-10-10T03:33:04;95759.00;;;11.30
54746;BMP180;40640;48.130;11.356;2022-10-10T03:37:07;95747.00;;;11.20
54746;BMP180;40640;48.130;11.356;2022-10-10T03:41:12;95742.00;;;11.10
54746;BMP180;40640;48.130;11.356;2022-10-10T03:45:15;95739.00;;;11.10
54746;BMP180;40640;48.130;11.356;2022-10-10T03:49:18;95747.00;;;11.00
54746;BMP180;40640;48.130;11.356;2022-10-10T03:53:21;95748.00;;;10.90
54746;BMP180;40640;48.130;11.356;2022-10-10T03:57:25;95739.00;;;10.90
54746;BMP180;40640;48.130;11.356;2022-10-10T04:01:27;95743.00;;;10.70
54746;BMP180;40640;48.130;11.356;2022-10-10T04:05:32;95743.00;;;10.60
54746;BMP180;40640;48.130;11.356;2022-10-10T04:09:35;95743.00;;;10.50
54746;BMP180;40640;48.130;11.356;2022-10-10T04:13:39;95750.00;;;10.60
54746;BMP180;40640;48.130;11.356;2022-10-10T04:17:42;95737.00;;;10.50
54746;BMP180;40640;48.130;11.356;2022-10-10T04:21:44;95745.00;;;10.40
54746;BMP180;40640;48.130;11.356;2022-10-10T04:25:50;95739.00;;;10.40
54746;BMP180;40640;48.130;11.356;2022-10-10T04:29:54;95738.00;;;10.40
54746;BMP180;40640;48.130;11.356;2022-10-10T04:33:57;95732.00;;;10.40
54746;BMP180;40640;48.130;11.356;2022-10-10T04:38:00;95741.00;;;10.30
54746;BMP180;40640;48.130;11.356;2022-10-10T04:42:03;95735.00;;;10.30
54746;BMP180;40640;48.130;11.356;2022-10-10T04:46:07;95731.00;;;10.20
54746;BMP180;40640;48.130;11.356;2022-10-10T04:50:09;95724.00;;;10.10
54746;BMP180;40640;48.130;11.356;2022-10-10T04:54:12;95731.00;;;10.10
54746;BMP180;40640;48.130;11.356;2022-10-10T04:58:15;95731.00;;;10.10
54746;BMP180;40640;48.130;11.356;2022-10-10T05:02:19;95737.00;;;10.00
54746;BMP180;40640;48.130;11.356;2022-10-10T05:06:22;95731.00;;;9.90
54746;BMP180;40640;48.130;11.356;2022-10-10T05:10:25;95736.00;;;9.90
54746;BMP180;40640;48.130;11.356;2022-10-10T05:14:28;95737.00;;;9.70
54746;BMP180;40640;48.130;11.356;2022-10-10T05:18:32;95738.00;;;9.80
54746;BMP180;40640;48.130;11.356;2022-10-10T05:22:37;95736.00;;;9.70
54746;BMP180;40640;48.130;11.356;2022-10-10T05:26:39;95745.00;;;9.70
54746;BMP180;40640;48.130;11.356;2022-10-10T05:30:43;95738.00;;;9.60
54746;BMP180;40640;48.130;11.356;2022-10-10T05:34:48;95735.00;;;9.70
54746;BMP180;40640;48.130;11.356;2022-10-10T05:38:50;95745.00;;;9.80
54746;BMP180;40640;48.130;11.356;2022-10-10T05:42:53;95749.00;;;9.90
54746;BMP180;40640;48.130;11.356;2022-10-10T05:46:56;95751.00;;;9.90
54746;BMP180;40640;48.130;11.356;2022-10-10T05:51:00;95733.00;;;9.90
54746;BMP180;40640;48.130;11.356;2022-10-10T05:55:03;95739.00;;;9.90
54746;BMP180;40640;48.130;11.356;2022-10-10T05:59:06;95739.00;;;10.10
54746;BMP180;40640;48.130;11.356;2022-10-10T06:03:10;95735.00;;;10.10
54746;BMP180;40640;48.130;11.356;2022-10-10T06:07:15;95747.00;;;10.20
54746;BMP180;40640;48.130;11.356;2022-10-10T06:11:18;95743.00;;;10.30
54746;BMP180;40640;48.130;11.356;2022-10-10T06:15:23;95744.00;;;10.30
54746;BMP180;40640;48.130;11.356;2022-10-10T06:19:26;95750.00;;;10.30
54746;BMP180;40640;48.130;11.356;2022-10-10T06:23:31;95745.00;;;10.40
54746;BMP180;40640;48.130;11.356;2022-10-10T06:27:34;95762.00;;;10.50
54746;BMP180;40640;48.130;11.356;2022-10-10T06:31:37;95764.00;;;10.70
54746;BMP180;40640;48.130;11.356;2022-10-10T06:35:42;95767.00;;;10.70
54746;BMP180;40640;48.130;11.356;2022-10-10T06:39:47;95772.00;;;10.70
54746;BMP180;40640;48.130;11.356;2022-10-10T06:43:49;95783.00;;;10.70
54746;BMP180;40640;48.130;11.356;2022-10-10T06:47:53;95780.00;;;10.80
54746;BMP180;40640;48.130;11.356;2022-10-10T06:51:56;95776.00;;;10.90
54746;BMP180;40640;48.130;11.356;2022-10-10T06:56:00;95779.00;;;11.00
54746;BMP180;40640;48.130;11.356;2022-10-10T07:00:04;95780.00;;;11.10
54746;BMP180;40640;48.130;11.356;2022-10-10T07:04:08;95790.00;;;11.10
54746;BMP180;40640;48.130;11.356;2022-10-10T07:08:10;95783.00;;;11.20
54746;BMP180;40640;48.130;11.356;2022-10-10T07:12:15;95793.00;;;11.40
54746;BMP180;40640;48.130;11.356;2022-10-10T07:16:17;95797.00;;;11.50
54746;BMP180;40640;48.130;11.356;2022-10-10T07:20:20;95796.00;;;11.60
54746;BMP180;40640;48.130;11.356;2022-10-10T07:24:23;95799.00;;;11.80
54746;BMP180;40640;48.130;11.356;2022-10-10T07:28:27;95798.00;;;11.90
54746;BMP180;40640;48.130;11.356;2022-10-10T07:32:30;95806.00;;;12.10
54746;BMP180;40640;48.130;11.356;2022-10-10T07:36:33;95811.00;;;12.30
54746;BMP180;40640;48.130;11.356;2022-10-10T07:40:38;95813.00;;;12.40
54746;BMP180;40640;48.130;11.356;2022-10-10T07:44:42;95809.00;;;12.60
54746;BMP180;40640;48.130;11.356;2022-10-10T07:48:45;95812.00;;;12.70
54746;BMP180;40640;48.130;11.356;2022-10-10T07:52:49;95819.00;;;12.80
54746;BMP180;40640;48.130;11.356;2022-10-10T07:56:51;95818.00;;;13.10
54746;BMP180;40640;48.130;11.356;2022-10-10T08:01:02;95830.00;;;13.30
54746;BMP180;40640;48.130;11.356;2022-10-10T08:05:06;95830.00;;;13.70
54746;BMP180;40640;48.130;11.356;2022-10-10T08:09:09;95833.00;;;14.00
54746;BMP180;40640;48.130;11.356;2022-10-10T08:13:12;95831.00;;;14.10
54746;BMP180;40640;48.130;11.356;2022-10-10T08:17:16;95827.00;;;14.30
54746;BMP180;40640;48.130;11.356;2022-10-10T08:21:19;95835.00;;;14.40
54746;BMP180;40640;48.130;11.356;2022-10-10T08:25:22;95835.00;;;14.50
54746;BMP180;40640;48.130;11.356;2022-10-10T08:29:25;95848.00;;;14.60
54746;BMP180;40640;48.130;11.356;2022-10-10T08:33:29;95843.00;;;14.80
54746;BMP180;40640;48.130;11.356;2022-10-10T08:37:32;95843.00;;;14.90
54746;BMP180;40640;48.130;11.356;2022-10-10T08:41:41;95843.00;;;15.10
54746;BMP180;40640;48.130;11.356;2022-10-10T08:45:44;95850.00;;;15.30
54746;BMP180;40640;48.130;11.356;2022-10-10T08:49:52;95846.00;;;15.50
54746;BMP180;40640;48.130;11.356;2022-10-10T08:53:58;95854.00;;;15.80
54746;BMP180;40640;48.130;11.356;2022-10-10T08:58:05;95853.00;;;16.00
54746;BMP180;40640;48.130;11.356;2022-10-10T09:02:25;95852.00;;;16.40
54746;BMP180;40640;48.130;11.356;2022-10-10T09:07:01;95858.00;;;16.50
54746;BMP180;40640;48.130;11.356;2022-10-10T09:11:19;95865.00;;;16.80
54746;BMP180;40640;48.130;11.356;2022-10-10T09:15:25;95861.00;;;16.70
54746;BMP180;40640;48.130;11.356;2022-10-10T09:19:38;95865.00;;;16.70
54746;BMP180;40640;48.130;11.356;2022-10-10T09:23:47;95859.00;;;17.00
54746;BMP180;40640;48.130;11.356;2022-10-10T09:27:57;95856.00;;;17.40
54746;BMP180;40640;48.130;11.356;2022-10-10T09:32:04;95860.00;;;17.90
54746;BMP180;40640;48.130;11.356;2022-10-10T09:36:13;95863.00;;;18.60
54746;BMP180;40640;48.130;11.356;2022-10-10T09:40:23;95869.00;;;19.00
54746;BMP180;40640;48.130;11.356;2022-10-10T09:44:27;95871.00;;;18.90
54746;BMP180;40640;48.130;11.356;2022-10-10T09:48:32;95876.00;;;19.30
54746;BMP180;40640;48.130;11.356;2022-10-10T09:52:35;95874.00;;;19.80
54746;BMP180;40640;48.130;11.356;2022-10-10T09:56:44;95878.00;;;20.50
54746;BMP180;40640;48.130;11.356;2022-10-10T10:00:49;95885.00;;;21.40
54746;BMP180;40640;48.130;11.356;2022-10-10T10:04:54;95880.00;;;22.40
54746;BMP180;40640;48.130;11.356;2022-10-10T10:08:59;95883.00;;;23.40
54746;BMP180;40640;48.130;11.356;2022-10-10T10:13:11;95885.00;;;23.10
54746;BMP180;40640;48.130;11.356;2022-10-10T10:17:16;95881.00;;;23.30
54746;BMP180;40640;48.130;11.356;2022-10-10T10:21:23;95886.00;;;23.20
54746;BMP180;40640;48.130;11.356;2022-10-10T10:25:31;95884.00;;;22.90
54746;BMP180;40640;48.130;11.356;2022-10-10T10:29:35;95892.00;;;22.20
54746;BMP180;40640;48.130;11.356;2022-10-10T10:33:44;95880.00;;;21.70
54746;BMP180;40640;48.130;11.356;2022-10-10T10:38:00;95893.00;;;21.50
54746;BMP180;40640;48.130;11.356;2022-10-10T10:42:15;95892.00;;;21.30
54746;BMP180;40640;48.130;11.356;2022-10-10T10:46:30;95902.00;;;21.30
54746;BMP180;40640;48.130;11.356;2022-10-10T10:50:43;95905.00;;;21.10
54746;BMP180;40640;48.130;11.356;2022-10-10T10:55:00;95894.00;;;21.10
54746;BMP180;40640;48.130;11.356;2022-10-10T10:59:19;95888.00;;;21.20
54746;BMP180;40640;48.130;11.356;2022-10-10T11:03:51;95892.00;;;20.80
54746;BMP180;40640;48.130;11.356;2022-10-10T11:08:33;95886.00;;;20.60
54746;BMP180;40640;48.130;11.356;2022-10-10T11:12:49;95877.00;;;20.60
54746;BMP180;40640;48.130;11.356;2022-10-10T11:16:58;95876.00;;;20.40
54746;BMP180;40640;48.130;11.356;2022-10-10T11:21:10;95877.00;;;20.80
54746;BMP180;40640;48.130;11.356;2022-10-10T11:25:19;95867.00;;;20.90
54746;BMP180;40640;48.130;11.356;2022-10-10T11:29:27;95876.00;;;20.80
54746;BMP180;40640;48.130;11.356;2022-10-10T11:33:34;95870.00;;;20.70
54746;BMP180;40640;48.130;11.356;2022-10-10T11:37:42;95871.00;;;20.60
54746;BMP180;40640;48.130;11.356;2022-10-10T11:41:51;95878.00;;;20.70
54746;BMP180;40640;48.130;11.356;2022-10-10T11:46:00;95884.00;;;20.60
54746;BMP180;40640;48.130;11.356;2022-10-10T11:50:11;95877.00;;;20.70
54746;BMP180;40640;48.130;11.356;2022-10-10T11:54:24;95878.00;;;21.00
54746;BMP180;40640;48.130;11.356;2022-10-10T11:58:34;95866.00;;;21.60
54746;BMP180;40640;48.130;11.356;2022-10-10T12:02:38;95869.00;;;21.70
54746;BMP180;40640;48.130;11.356;2022-10-10T12:06:46;95873.00;;;21.40
54746;BMP180;40640;48.130;11.356;2022-10-10T12:10:56;95879.00;;;21.40
54746;BMP180;40640;48.130;11.356;2022-10-10T12:15:01;95885.00;;;21.50
54746;BMP180;40640;48.130;11.356;2022-10-10T12:19:15;95875.00;;;21.00
54746;BMP180;40640;48.130;11.356;2022-10-10T12:23:22;95871.00;;;20.90
54746;BMP180;40640;48.130;11.356;2022-10-10T12:27:42;95876.00;;;20.60
54746;BMP180;40640;48.130;11.356;2022-10-10T12:31:45;95876.00;;;20.60
54746;BMP180;40640;48.130;11.356;2022-10-10T12:36:42;95876.00;;;20.60
54746;BMP180;40640;48.130;11.356;2022-10-10T12:41:05;95868.00;;;21.00
54746;BMP180;40640;48.130;11.356;2022-10-10T12:49:49;95857.00;;;21.20
54746;BMP180;40640;48.130;11.356;2022-10-10T12:53:54;95855.00;;;20.80
54746;BMP180;40640;48.130;11.356;2022-10-10T12:58:01;95865.00;;;20.70
54746;BMP180;40640;48.130;11.356;2022-10-10T13:02:10;95867.00;;;20.60
54746;BMP180;40640;48.130;11.356;2022-10-10T13:06:32;95858.00;;;20.40
54746;BMP180;40640;48.130;11.356;2022-10-10T13:10:35;95871.00;;;20.30
54746;BMP180;40640;48.130;11.356;2022-10-10T13:14:40;95868.00;;;20.30
54746;BMP180;40640;48.130;11.356;2022-10-10T13:18:48;95860.00;;;20.40
54746;BMP180;40640;48.130;11.356;2022-10-10T13:22:53;95860.00;;;20.40
54746;BMP180;40640;48.130;11.356;2022-10-10T13:26:57;95866.00;;;20.30
54746;BMP180;40640;48.130;11.356;2022-10-10T13:31:00;95865.00;;;20.20
54746;BMP180;40640;48.130;11.356;2022-10-10T13:35:05;95866.00;;;20.00
54746;BMP180;40640;48.130;11.356;2022-10-10T13:39:13;95868.00;;;20.20
54746;BMP180;40640;48.130;11.356;2022-10-10T13:43:17;95862.00;;;20.20
54746;BMP180;40640;48.130;11.356;2022-10-10T13:52:01;95868.00;;;20.20
54746;BMP180;40640;48.130;11.356;2022-10-10T13:56:09;95869.00;;;20.20
54746;BMP180;40640;48.130;11.356;2022-10-10T14:00:16;95874.00;;;20.10
54746;BMP180;40640;48.130;11.356;2022-10-10T14:04:21;95879.00;;;20.00
54746;BMP180;40640;48.130;11.356;2022-10-10T14:08:27;95872.00;;;20.00
54746;BMP180;40640;48.130;11.356;2022-10-10T14:12:36;95877.00;;;20.10
54746;BMP180;40640;48.130;11.356;2022-10-10T14:16:41;95874.00;;;20.00
54746;BMP180;40640;48.130;11.356;2022-10-10T14:20:44;95874.00;;;19.90
54746;BMP180;40640;48.130;11.356;2022-10-10T14:24:48;95873.00;;;19.80
54746;BMP180;40640;48.130;11.356;2022-10-10T14:28:52;95873.00;;;19.80
54746;BMP180;40640;48.130;11.356;2022-10-10T14:32:55;95876.00;;;19.70
54746;BMP180;40640;48.130;11.356;2022-10-10T14:36:58;95870.00;;;19.60
54746;BMP180;40640;48.130;11.356;2022-10-10T14:41:01;95876.00;;;19.50
54746;BMP180;40640;48.130;11.356;2022-10-10T14:45:06;95876.00;;;19.50
54746;BMP180;40640;48.130;11.356;2022-10-10T14:49:14;95879.00;;;19.40
54746;BMP180;40640;48.130;11.356;2022-10-10T14:53:18;95887.00;;;19.30
54746;BMP180;40640;48.130;11.356;2022-10-10T14:57:21;95885.00;;;19.20
54746;BMP180;40640;48.130;11.356;2022-10-10T15:01:25;95882.00;;;19.20
54746;BMP180;40640;48.130;11.356;2022-10-10T15:05:28;95884.00;;;19.00
54746;BMP180;40640;48.130;11.356;2022-10-10T15:09:30;95881.00;;;18.90
54746;BMP180;40640;48.130;11.356;2022-10-10T15:13:45;95874.00;;;18.80
54746;BMP180;40640;48.130;11.356;2022-10-10T15:17:49;95887.00;;;18.80
54746;BMP180;40640;48.130;11.356;2022-10-10T15:21:52;95877.00;;;18.70
54746;BMP180;40640;48.130;11.356;2022-10-10T15:25:58;95893.00;;;18.60
54746;BMP180;40640;48.130;11.356;2022-10-10T15:30:00;95886.00;;;18.60
54746;BMP180;40640;48.130;11.356;2022-10-10T15:34:05;95883.00;;;18.50
54746;BMP180;40640;48.130;11.356;2022-10-10T15:38:08;95891.00;;;18.40
54746;BMP180;40640;48.130;11.356;2022-10-10T15:42:12;95882.00;;;18.40
54746;BMP180;40640;48.130;11.356;2022-10-10T15:46:24;95890.00;;;18.30
54746;BMP180;40640;48.130;11.356;2022-10-10T15:50:29;95883.00;;;18.20
54746;BMP180;40640;48.130;11.356;2022-10-10T15:54:32;95890.00;;;18.20
54746;BMP180;40640;48.130;11.356;2022-10-10T15:58:36;95898.00;;;18.10
54746;BMP180;40640;48.130;11.356;2022-10-10T16:02:39;95899.00;;;18.00
54746;BMP180;40640;48.130;11.356;2022-10-10T16:06:43;95897.00;;;18.00
54746;BMP180;40640;48.130;11.356;2022-10-10T16:11:03;95909.00;;;17.90
54746;BMP180;40640;48.130;11.356;2022-10-10T16:15:07;95897.00;;;17.80
54746;BMP180;40640;48.130;11.356;2022-10-10T16:19:10;95904.00;;;17.80
54746;BMP180;40640;48.130;11.356;2022-10-10T16:23:14;95908.00;;;17.70
54746;BMP180;40640;48.130;11.356;2022-10-10T16:27:17;95894.00;;;17.70
54746;BMP180;40640;48.130;11.356;2022-10-10T16:31:25;95900.00;;;17.60
54746;BMP180;40640;48.130;11.356;2022-10-10T16:35:28;95907.00;;;17.60
54746;BMP180;40640;48.130;11.356;2022-10-10T16:39:32;95917.00;;;17.60
54746;BMP180;40640;48.130;11.356;2022-10-10T16:43:35;95921.00;;;17.50
54746;BMP180;40640;48.130;11.356;2022-10-10T16:47:38;95923.00;;;17.50
54746;BMP180;40640;48.130;11.356;2022-10-10T16:51:41;95927.00;;;17.40
54746;BMP180;40640;48.130;11.356;2022-10-10T16:55:46;95932.00;;;17.40
54746;BMP180;40640;48.130;11.356;2022-10-10T16:59:49;95942.00;;;17.30
54746;BMP180;40640;48.130;11.356;2022-10-10T17:03:52;95952.00;;;17.20
54746;BMP180;40640;48.130;11.356;2022-10-10T17:07:55;95946.00;;;17.20
54746;BMP180;40640;48.130;11.356;2022-10-10T17:11:59;95944.00;;;17.10
54746;BMP180;40640;48.130;11.356;2022-10-10T17:16:03;95944.00;;;17.10
54746;BMP180;40640;48.130;11.356;2022-10-10T17:20:26;95964.00;;;17.00
54746;BMP180;40640;48.130;11.356;2022-10-10T17:24:30;95960.00;;;17.00
54746;BMP180;40640;48.130;11.356;2022-10-10T17:28:35;95973.00;;;16.90
54746;BMP180;40640;48.130;11.356;2022-10-10T17:32:39;95964.00;;;16.90
54746;BMP180;40640;48.130;11.356;2022-10-10T17:36:42;95976.00;;;16.90
54746;BMP180;40640;48.130;11.356;2022-10-10T17:40:54;95965.00;;;16.80
54746;BMP180;40640;48.130;11.356;2022-10-10T17:44:59;95979.00;;;16.80
54746;BMP180;40640;48.130;11.356;2022-10-10T17:49:03;95974.00;;;16.80
54746;BMP180;40640;48.130;11.356;2022-10-10T17:53:06;95985.00;;;16.70
54746;BMP180;40640;48.130;11.356;2022-10-10T17:57:08;95985.00;;;16.50
54746;BMP180;40640;48.130;11.356;2022-10-10T18:01:14;95977.00;;;16.40
54746;BMP180;40640;48.130;11.356;2022-10-10T18:05:17;95973.00;;;16.40
54746;BMP180;40640;48.130;11.356;2022-10-10T18:09:20;95976.00;;;16.30
54746;BMP180;40640;48.130;11.356;2022-10-10T18:13:22;95987.00;;;16.30
54746;BMP180;40640;48.130;11.356;2022-10-10T18:17:27;95984.00;;;16.30
54746;BMP180;40640;48.130;11.356;2022-10-10T18:21:29;95989.00;;;16.20
54746;BMP180;40640;48.130;11.356;2022-10-10T18:25:32;95998.00;;;16.10
54746;BMP180;40640;48.130;11.356;2022-10-10T18:29:35;95991.00;;;16.00
54746;BMP180;40640;48.130;11.356;2022-10-10T18:33:40;95990.00;;;15.90
54746;BMP180;40640;48.130;11.356;2022-10-10T18:37:42;96002.00;;;15.90
54746;BMP180;40640;48.130;11.356;2022-10-10T18:41:45;95997.00;;;15.80
54746;BMP180;40640;48.130;11.356;2022-10-10T18:45:48;95989.00;;;15.70
54746;BMP180;40640;48.130;11.356;2022-10-10T18:49:54;95997.00;;;15.60
54746;BMP180;40640;48.130;11.356;2022-10-10T18:53:59;96001.00;;;15.50
54746;BMP180;40640;48.130;11.356;2022-10-10T18:58:03;96013.00;;;15.40
54746;BMP180;40640;48.130;11.356;2022-10-10T19:02:07;96014.00;;;15.30
54746;BMP180;40640;48.130;11.356;2022-10-10T19:06:12;96012.00;;;15.30
54746;BMP180;40640;48.130;11.356;2022-10-10T19:10:15;96014.00;;;15.20
54746;BMP180;40640;48.130;11.356;2022-10-10T19:14:19;96010.00;;;15.20
54746;BMP180;40640;48.130;11.356;2022-10-10T19:18:21;96005.00;;;15.10
54746;BMP180;40640;48.130;11.356;2022-10-10T19:22:26;96002.00;;;15.00
54746;BMP180;40640;48.130;11.356;2022-10-10T19:26:29;96004.00;;;14.90
54746;BMP180;40640;48.130;11.356;2022-10-10T19:30:36;96004.00;;;14.80
54746;BMP180;40640;48.130;11.356;2022-10-10T19:34:39;96003.00;;;14.80
54746;BMP180;40640;48.130;11.356;2022-10-10T19:38:43;96009.00;;;14.70
54746;BMP180;40640;48.130;11.356;2022-10-10T19:42:46;96016.00;;;14.60
54746;BMP180;40640;48.130;11.356;2022-10-10T19:46:49;96012.00;;;14.60
54746;BMP180;40640;48.130;11.356;2022-10-10T19:50:52;96015.00;;;14.60
54746;BMP180;40640;48.130;11.356;2022-10-10T19:54:56;96010.00;;;14.40
54746;BMP180;40640;48.130;11.356;2022-10-10T19:58:59;96018.00;;;14.40
54746;BMP180;40640;48.130;11.356;2022-10-10T20:03:04;96006.00;;;14.40
54746;BMP180;40640;48.130;11.356;2022-10-10T20:07:07;96028.00;;;14.40
54746;BMP180;40640;48.130;11.356;2022-10-10T20:11:11;96018.00;;;14.40
54746;BMP180;40640;48.130;11.356;2022-10-10T20:15:14;96028.00;;;14.20
54746;BMP180;40640;48.130;11.356;2022-10-10T20:19:17;96020.00;;;14.20
54746;BMP180;40640;48.130;11.356;2022-10-10T20:23:22;96022.00;;;14.10
54746;BMP180;40640;48.130;11.356;2022-10-10T20:27:26;96028.00;;;14.00
54746;BMP180;40640;48.130;11.356;2022-10-10T20:31:33;96020.00;;;14.00
54746;BMP180;40640;48.130;11.356;2022-10-10T20:35:36;96019.00;;;14.00
54746;BMP180;40640;48.130;11.356;2022-10-10T20:39:39;96018.00;;;13.90
54746;BMP180;40640;48.130;11.356;2022-10-10T20:43:43;96032.00;;;13.90
54746;BMP180;40640;48.130;11.356;2022-10-10T20:47:46;96046.00;;;13.80
54746;BMP180;40640;48.130;11.356;2022-10-10T20:51:49;96031.00;;;13.80
54746;BMP180;40640;48.130;11.356;2022-10-10T20:55:52;96039.00;;;13.80
54746;BMP180;40640;48.130;11.356;2022-10-10T20:59:56;96048.00;;;13.80
54746;BMP180;40640;48.130;11.356;2022-10-10T21:04:00;96049.00;;;13.60
54746;BMP180;40640;48.130;11.356;2022-10-10T21:08:03;96037.00;;;13.60
54746;BMP180;40640;48.130;11.356;2022-10-10T21:12:06;96038.00;;;13.70
54746;BMP180;40640;48.130;11.356;2022-10-10T21:16:13;96047.00;;;13.70
54746;BMP180;40640;48.130;11.356;2022-10-10T21:20:16;96050.00;;;13.70
54746;BMP180;40640;48.130;11.356;2022-10-10T21:24:19;96045.00;;;13.60
54746;BMP180;40640;48.130;11.356;2022-10-10T21:28:21;96050.00;;;13.40
54746;BMP180;40640;48.130;11.356;2022-10-10T21:32:26;96057.00;;;13.40
54746;BMP180;40640;48.130;11.356;2022-10-10T21:36:29;96063.00;;;13.30
54746;BMP180;40640;48.130;11.356;2022-10-10T21:40:33;96066.00;;;13.40
54746;BMP180;40640;48.130;11.356;2022-10-10T21:44:36;96058.00;;;13.20
54746;BMP180;40640;48.130;11.356;2022-10-10T21:48:41;96065.00;;;13.20
54746;BMP180;40640;48.130;11.356;2022-10-10T21:52:43;96060.00;;;13.20
54746;BMP180;40640;48.130;11.356;2022-10-10T21:56:46;96060.00;;;13.20
54746;BMP180;40640;48.130;11.356;2022-10-10T22:00:49;96068.00;;;13.10
54746;BMP180;40640;48.130;11.356;2022-10-10T22:04:53;96059.00;;;13.00
54746;BMP180;40640;48.130;11.356;2022-10-10T22:08:57;96066.00;;;13.10
54746;BMP180;40640;48.130;11.356;2022-10-10T22:13:01;96062.00;;;13.00
54746;BMP180;40640;48.130;11.356;2022-10-10T22:17:04;96074.00;;;13.00
54746;BMP180;40640;48.130;11.356;2022-10-10T22:21:10;96075.00;;;12.90
54746;BMP180;40640;48.130;11.356;2022-10-10T22:25:15;96060.00;;;12.90
54746;BMP180;40640;48.130;11.356;2022-10-10T22:29:18;96055.00;;;13.00
54746;BMP180;40640;48.130;11.356;2022-10-10T22:33:21;96063.00;;;12.80
54746;BMP180;40640;48.130;11.356;2022-10-10T22:37:25;96054.00;;;12.80
54746;BMP180;40640;48.130;11.356;2022-10-10T22:41:28;96071.00;;;12.70
54746;BMP180;40640;48.130;11.356;2022-10-10T22:45:30;96077.00;;;12.70
54746;BMP180;40640;48.130;11.356;2022-10-10T22:49:33;96080.00;;;12.80
54746;BMP180;40640;48.130;11.356;2022-10-10T22:53:40;96085.00;;;13.00
54746;BMP180;40640;48.130;11.356;2022-10-10T22:57:43;96086.00;;;13.00
54746;BMP180;40640;48.130;11.356;2022-10-10T23:01:46;96081.00;;;12.80
54746;BMP180;40640;48.130;11.356;2022-10-10T23:05:49;96096.00;;;12.90
54746;BMP180;40640;48.130;11.356;2022-10-10T23:09:53;96088.00;;;12.80
54746;BMP180;40640;48.130;11.356;2022-10-10T23:13:56;96084.00;;;12.80
54746;BMP180;40640;48.130;11.356;2022-10-10T23:17:58;96087.00;;;12.80
54746;BMP180;40640;48.130;11.356;2022-10-10T23:22:01;96088.00;;;12.70
54746;BMP180;40640;48.130;11.356;2022-10-10T23:26:11;96089.00;;;12.80